sensor_id;sensor_type;location;lat;lon;timestamp;pressure;altitude;pressure_sealevel;temperature;humidity
37848;BME280;23688;33.130;-117.188;2023-03-04T00:02:11;99287.28;;;14.50;46.40
37848;BME280;23688;33.130;-117.188;2023-03-04T00:04:37;99299.72;;;14.60;42.13
37848;BME280;23688;33.130;-117.188;2023-03-04T00:07:03;99300.78;;;14.68;46.51
37848;BME280;23688;33.130;-117.188;2023-03-04T00:09:30;99294.06;;;14.43;46.98
37848;BME280;23688;33.130;-117.188;2023-03-04T00:11:56;99298.91;;;14.25;48.16
37848;BME280;23688;33.130;-117.188;2023-03-04T00:14:22;99302.16;;;14.16;44.28
37848;BME280;23688;33.130;-117.188;2023-03-04T00:16:49;99297.63;;;14.07;41.48
37848;BME280;23688;33.130;-117.188;2023-03-04T00:19:15;99304.81;;;14.18;44.58
37848;BME280;23688;33.130;-117.188;2023-03-04T00:21:41;99302.38;;;14.25;47.33
37848;BME280;23688;33.130;-117.188;2023-03-04T00:24:08;99303.81;;;14.50;48.23
37848;BME280;23688;33.130;-117.188;2023-03-04T00:26:34;99306.69;;;14.60;43.07
37848;BME280;23688;33.130;-117.188;2023-03-04T00:29:00;99304.81;;;14.54;41.08
37848;BME280;23688;33.130;-117.188;2023-03-04T00:31:27;99312.66;;;14.55;45.17
37848;BME280;23688;33.130;-117.188;2023-03-04T00:33:53;99292.75;;;14.59;46.14
37848;BME280;23688;33.130;-117.188;2023-03-04T00:36:19;99314.88;;;14.39;51.14
37848;BME280;23688;33.130;-117.188;2023-03-04T00:42:07;99321.53;;;13.89;55.09
37848;BME280;23688;33.130;-117.188;2023-03-04T00:44:33;99320.53;;;13.84;56.91
37848;BME280;23688;33.130;-117.188;2023-03-04T00:47:00;99315.88;;;13.73;58.58
37848;BME280;23688;33.130;-117.188;2023-03-04T00:49:26;99313.72;;;13.56;57.27
37848;BME280;23688;33.130;-117.188;2023-03-04T00:51:52;99323.72;;;13.41;58.05
37848;BME280;23688;33.130;-117.188;2023-03-04T00:54:19;99319.88;;;13.58;56.38
37848;BME280;23688;33.130;-117.188;2023-03-04T00:56:45;99310.94;;;13.50;55.96
37848;BME280;23688;33.130;-117.188;2023-03-04T00:59:11;99313.84;;;13.61;54.95
37848;BME280;23688;33.130;-117.188;2023-03-04T01:01:37;99305.53;;;13.42;58.21
37848;BME280;23688;33.130;-117.188;2023-03-04T01:04:04;99319.84;;;13.26;58.89
37848;BME280;23688;33.130;-117.188;2023-03-04T01:06:30;99312.81;;;13.24;58.98
37848;BME280;23688;33.130;-117.188;2023-03-04T01:08:56;99316.31;;;13.24;58.80
37848;BME280;23688;33.130;-117.188;2023-03-04T01:11:23;99325.41;;;13.07;58.19
37848;BME280;23688;33.130;-117.188;2023-03-04T01:13:49;99331.69;;;13.15;57.49
37848;BME280;23688;33.130;-117.188;2023-03-04T01:16:15;99315.97;;;13.12;56.56
37848;BME280;23688;33.130;-117.188;2023-03-04T01:18:42;99325.00;;;12.93;56.77
37848;BME280;23688;33.130;-117.188;2023-03-04T01:21:09;99337.34;;;13.00;58.70
37848;BME280;23688;33.130;-117.188;2023-03-04T01:23:35;99328.25;;;12.86;59.99
37848;BME280;23688;33.130;-117.188;2023-03-04T01:26:02;99339.00;;;12.68;59.80
37848;BME280;23688;33.130;-117.188;2023-03-04T01:28:28;99329.69;;;12.48;62.29
37848;BME280;23688;33.130;-117.188;2023-03-04T01:30:55;99346.00;;;12.42;62.87
37848;BME280;23688;33.130;-117.188;2023-03-04T01:33:21;99334.22;;;12.26;64.63
37848;BME280;23688;33.130;-117.188;2023-03-04T01:35:47;99343.19;;;12.36;64.68
37848;BME280;23688;33.130;-117.188;2023-03-04T01:38:14;99348.31;;;12.06;64.86
37848;BME280;23688;33.130;-117.188;2023-03-04T01:40:40;99347.22;;;11.99;65.13
37848;BME280;23688;33.130;-117.188;2023-03-04T01:43:08;99356.03;;;12.30;64.19
37848;BME280;23688;33.130;-117.188;2023-03-04T01:45:36;99335.31;;;12.33;64.02
37848;BME280;23688;33.130;-117.188;2023-03-04T01:48:02;99332.91;;;12.39;63.85
37848;BME280;23688;33.130;-117.188;2023-03-04T01:50:33;99344.34;;;12.44;63.94
37848;BME280;23688;33.130;-117.188;2023-03-04T01:53:01;99351.53;;;12.24;65.35
37848;BME280;23688;33.130;-117.188;2023-03-04T01:55:29;99336.56;;;11.91;67.34
37848;BME280;23688;33.130;-117.188;2023-03-04T01:57:55;99329.94;;;11.75;68.41
37848;BME280;23688;33.130;-117.188;2023-03-04T02:00:26;99360.41;;;11.79;69.50
37848;BME280;23688;33.130;-117.188;2023-03-04T02:02:58;99348.31;;;12.06;68.94
37848;BME280;23688;33.130;-117.188;2023-03-04T02:05:26;99361.09;;;12.25;69.32
37848;BME280;23688;33.130;-117.188;2023-03-04T02:07:54;99357.72;;;12.28;69.28
37848;BME280;23688;33.130;-117.188;2023-03-04T02:10:21;99361.19;;;12.28;69.55
37848;BME280;23688;33.130;-117.188;2023-03-04T02:12:47;99359.44;;;12.27;70.32
37848;BME280;23688;33.130;-117.188;2023-03-04T02:15:16;99354.13;;;12.24;70.53
37848;BME280;23688;33.130;-117.188;2023-03-04T02:17:42;99349.66;;;12.20;70.57
37848;BME280;23688;33.130;-117.188;2023-03-04T02:23:22;99360.44;;;12.05;71.92
37848;BME280;23688;33.130;-117.188;2023-03-04T02:28:35;99337.84;;;11.78;72.96
37848;BME280;23688;33.130;-117.188;2023-03-04T02:31:02;99344.78;;;11.78;73.49
37848;BME280;23688;33.130;-117.188;2023-03-04T02:33:29;99352.44;;;11.75;74.14
37848;BME280;23688;33.130;-117.188;2023-03-04T02:35:58;99331.13;;;11.60;74.76
37848;BME280;23688;33.130;-117.188;2023-03-04T02:38:25;99344.22;;;11.63;74.76
37848;BME280;23688;33.130;-117.188;2023-03-04T02:40:52;99343.28;;;11.61;75.19
37848;BME280;23688;33.130;-117.188;2023-03-04T02:43:20;99336.16;;;11.55;75.39
37848;BME280;23688;33.130;-117.188;2023-03-04T02:45:48;99327.06;;;11.42;75.73
37848;BME280;23688;33.130;-117.188;2023-03-04T02:48:19;99339.19;;;11.42;76.10
37848;BME280;23688;33.130;-117.188;2023-03-04T02:50:51;99334.63;;;11.36;76.24
37848;BME280;23688;33.130;-117.188;2023-03-04T02:53:19;99331.88;;;11.31;76.59
37848;BME280;23688;33.130;-117.188;2023-03-04T02:55:47;99336.63;;;11.19;76.99
37848;BME280;23688;33.130;-117.188;2023-03-04T02:58:14;99331.22;;;11.13;77.36
37848;BME280;23688;33.130;-117.188;2023-03-04T03:00:40;99331.66;;;11.01;78.07
37848;BME280;23688;33.130;-117.188;2023-03-04T03:03:07;99337.69;;;11.00;78.17
37848;BME280;23688;33.130;-117.188;2023-03-04T03:05:34;99344.47;;;10.97;78.19
37848;BME280;23688;33.130;-117.188;2023-03-04T03:08:01;99353.03;;;10.94;78.32
37848;BME280;23688;33.130;-117.188;2023-03-04T03:10:27;99350.22;;;10.88;78.53
37848;BME280;23688;33.130;-117.188;2023-03-04T03:12:53;99345.97;;;10.90;78.43
37848;BME280;23688;33.130;-117.188;2023-03-04T03:15:20;99349.16;;;10.83;78.04
37848;BME280;23688;33.130;-117.188;2023-03-04T03:17:46;99339.88;;;10.67;78.42
37848;BME280;23688;33.130;-117.188;2023-03-04T03:20:13;99341.25;;;10.57;78.52
37848;BME280;23688;33.130;-117.188;2023-03-04T03:22:41;99333.63;;;10.39;78.79
37848;BME280;23688;33.130;-117.188;2023-03-04T03:25:08;99346.47;;;10.36;78.53
37848;BME280;23688;33.130;-117.188;2023-03-04T03:27:35;99351.28;;;10.27;78.35
37848;BME280;23688;33.130;-117.188;2023-03-04T03:30:02;99355.53;;;10.25;78.37
37848;BME280;23688;33.130;-117.188;2023-03-04T03:32:29;99344.69;;;10.14;78.69
37848;BME280;23688;33.130;-117.188;2023-03-04T03:34:55;99362.28;;;10.21;78.85
37848;BME280;23688;33.130;-117.188;2023-03-04T03:37:22;99343.38;;;10.03;79.14
37848;BME280;23688;33.130;-117.188;2023-03-04T03:39:48;99368.69;;;10.08;79.15
37848;BME280;23688;33.130;-117.188;2023-03-04T03:42:14;99373.09;;;10.11;80.15
37848;BME280;23688;33.130;-117.188;2023-03-04T03:44:40;99377.22;;;10.06;80.93
37848;BME280;23688;33.130;-117.188;2023-03-04T03:47:07;99376.91;;;9.98;80.07
37848;BME280;23688;33.130;-117.188;2023-03-04T03:49:33;99372.00;;;9.85;79.11
37848;BME280;23688;33.130;-117.188;2023-03-04T03:51:59;99382.81;;;9.75;78.22
37848;BME280;23688;33.130;-117.188;2023-03-04T03:54:26;99387.56;;;9.64;77.64
37848;BME280;23688;33.130;-117.188;2023-03-04T03:56:52;99387.22;;;9.56;76.87
37848;BME280;23688;33.130;-117.188;2023-03-04T03:59:18;99385.19;;;9.49;76.94
37848;BME280;23688;33.130;-117.188;2023-03-04T04:01:44;99380.47;;;9.40;77.40
37848;BME280;23688;33.130;-117.188;2023-03-04T04:04:11;99380.22;;;9.34;77.50
37848;BME280;23688;33.130;-117.188;2023-03-04T04:06:37;99400.25;;;9.38;78.08
37848;BME280;23688;33.130;-117.188;2023-03-04T04:09:03;99397.53;;;9.35;78.50
37848;BME280;23688;33.130;-117.188;2023-03-04T04:11:30;99389.63;;;9.32;79.01
37848;BME280;23688;33.130;-117.188;2023-03-04T04:13:56;99401.84;;;9.35;79.27
37848;BME280;23688;33.130;-117.188;2023-03-04T04:16:22;99407.69;;;9.31;80.03
37848;BME280;23688;33.130;-117.188;2023-03-04T04:18:48;99377.75;;;9.18;79.94
37848;BME280;23688;33.130;-117.188;2023-03-04T04:21:15;99389.75;;;9.16;80.19
37848;BME280;23688;33.130;-117.188;2023-03-04T04:23:44;99386.06;;;9.11;80.46
37848;BME280;23688;33.130;-117.188;2023-03-04T04:26:10;99416.81;;;9.23;80.88
37848;BME280;23688;33.130;-117.188;2023-03-04T04:28:36;99421.25;;;9.25;81.67
37848;BME280;23688;33.130;-117.188;2023-03-04T04:31:07;99405.59;;;9.22;82.25
37848;BME280;23688;33.130;-117.188;2023-03-04T04:33:34;99405.63;;;9.24;82.02
37848;BME280;23688;33.130;-117.188;2023-03-04T04:36:01;99418.00;;;9.29;82.81
37848;BME280;23688;33.130;-117.188;2023-03-04T04:38:28;99417.03;;;9.27;83.07
37848;BME280;23688;33.130;-117.188;2023-03-04T04:40:56;99420.75;;;9.14;83.72
37848;BME280;23688;33.130;-117.188;2023-03-04T04:43:23;99423.81;;;9.06;84.61
37848;BME280;23688;33.130;-117.188;2023-03-04T04:45:50;99417.25;;;8.94;85.07
37848;BME280;23688;33.130;-117.188;2023-03-04T04:48:16;99416.91;;;8.87;85.83
37848;BME280;23688;33.130;-117.188;2023-03-04T04:50:43;99419.94;;;8.96;86.54
37848;BME280;23688;33.130;-117.188;2023-03-04T04:53:11;99419.84;;;8.94;87.03
37848;BME280;23688;33.130;-117.188;2023-03-04T04:55:40;99413.56;;;8.89;88.09
37848;BME280;23688;33.130;-117.188;2023-03-04T04:58:07;99417.50;;;8.81;87.93
37848;BME280;23688;33.130;-117.188;2023-03-04T05:00:33;99419.13;;;8.79;88.39
37848;BME280;23688;33.130;-117.188;2023-03-04T05:02:59;99412.13;;;8.76;88.97
37848;BME280;23688;33.130;-117.188;2023-03-04T05:05:26;99418.78;;;8.71;89.55
37848;BME280;23688;33.130;-117.188;2023-03-04T05:07:52;99419.31;;;8.64;90.19
37848;BME280;23688;33.130;-117.188;2023-03-04T05:10:18;99414.00;;;8.61;90.86
37848;BME280;23688;33.130;-117.188;2023-03-04T05:12:45;99421.66;;;8.60;91.81
37848;BME280;23688;33.130;-117.188;2023-03-04T05:15:11;99414.56;;;8.55;91.90
37848;BME280;23688;33.130;-117.188;2023-03-04T05:17:38;99415.88;;;8.65;91.78
37848;BME280;23688;33.130;-117.188;2023-03-04T05:20:04;99400.88;;;8.58;92.77
37848;BME280;23688;33.130;-117.188;2023-03-04T05:22:32;99409.56;;;8.59;93.56
37848;BME280;23688;33.130;-117.188;2023-03-04T05:24:58;99421.66;;;8.60;93.34
37848;BME280;23688;33.130;-117.188;2023-03-04T05:27:24;99432.09;;;8.61;93.43
37848;BME280;23688;33.130;-117.188;2023-03-04T05:29:51;99405.63;;;8.49;93.42
37848;BME280;23688;33.130;-117.188;2023-03-04T05:32:17;99428.69;;;8.62;93.54
37848;BME280;23688;33.130;-117.188;2023-03-04T05:34:44;99423.59;;;8.64;93.52
37848;BME280;23688;33.130;-117.188;2023-03-04T05:37:10;99422.63;;;8.62;93.53
37848;BME280;23688;33.130;-117.188;2023-03-04T05:39:36;99433.22;;;8.66;93.55
37848;BME280;23688;33.130;-117.188;2023-03-04T05:42:03;99423.28;;;8.57;93.48
37848;BME280;23688;33.130;-117.188;2023-03-04T05:44:29;99424.25;;;8.60;93.66
37848;BME280;23688;33.130;-117.188;2023-03-04T05:46:55;99426.94;;;8.61;93.48
37848;BME280;23688;33.130;-117.188;2023-03-04T05:49:21;99435.56;;;8.62;93.44
37848;BME280;23688;33.130;-117.188;2023-03-04T05:51:48;99427.16;;;8.66;93.80
37848;BME280;23688;33.130;-117.188;2023-03-04T05:54:14;99438.28;;;8.65;93.23
37848;BME280;23688;33.130;-117.188;2023-03-04T05:56:41;99442.69;;;8.66;93.21
37848;BME280;23688;33.130;-117.188;2023-03-04T05:59:07;99447.03;;;8.67;92.81
37848;BME280;23688;33.130;-117.188;2023-03-04T06:01:33;99453.03;;;8.66;93.14
37848;BME280;23688;33.130;-117.188;2023-03-04T06:04:00;99442.22;;;8.56;92.86
37848;BME280;23688;33.130;-117.188;2023-03-04T06:06:27;99439.34;;;8.50;92.68
37848;BME280;23688;33.130;-117.188;2023-03-04T06:08:53;99449.53;;;8.47;92.84
37848;BME280;23688;33.130;-117.188;2023-03-04T06:11:21;99430.47;;;8.45;93.01
37848;BME280;23688;33.130;-117.188;2023-03-04T06:13:47;99436.28;;;8.41;93.24
37848;BME280;23688;33.130;-117.188;2023-03-04T06:16:14;99421.19;;;8.32;93.19
37848;BME280;23688;33.130;-117.188;2023-03-04T06:18:40;99433.25;;;8.32;93.63
37848;BME280;23688;33.130;-117.188;2023-03-04T06:21:06;99432.19;;;8.28;93.71
37848;BME280;23688;33.130;-117.188;2023-03-04T06:23:33;99416.94;;;8.17;94.33
37848;BME280;23688;33.130;-117.188;2023-03-04T06:26:00;99414.13;;;8.12;94.86
37848;BME280;23688;33.130;-117.188;2023-03-04T06:28:27;99423.78;;;8.14;95.53
37848;BME280;23688;33.130;-117.188;2023-03-04T06:30:56;99416.44;;;8.06;95.61
37848;BME280;23688;33.130;-117.188;2023-03-04T06:33:22;99422.47;;;8.06;95.50
37848;BME280;23688;33.130;-117.188;2023-03-04T06:35:53;99422.56;;;8.08;95.98
37848;BME280;23688;33.130;-117.188;2023-03-04T06:38:20;99412.28;;;8.09;96.10
37848;BME280;23688;33.130;-117.188;2023-03-04T06:40:48;99425.88;;;8.05;96.19
37848;BME280;23688;33.130;-117.188;2023-03-04T06:43:14;99422.97;;;7.99;95.66
37848;BME280;23688;33.130;-117.188;2023-03-04T06:45:41;99428.75;;;7.93;95.67
37848;BME280;23688;33.130;-117.188;2023-03-04T06:48:07;99414.13;;;7.78;96.06
37848;BME280;23688;33.130;-117.188;2023-03-04T06:50:34;99427.28;;;7.82;95.92
37848;BME280;23688;33.130;-117.188;2023-03-04T06:53:01;99426.13;;;7.76;96.01
37848;BME280;23688;33.130;-117.188;2023-03-04T06:55:27;99437.34;;;7.76;96.95
37848;BME280;23688;33.130;-117.188;2023-03-04T06:57:54;99422.91;;;7.63;97.29
37848;BME280;23688;33.130;-117.188;2023-03-04T07:00:34;99395.47;;;7.49;97.67
37848;BME280;23688;33.130;-117.188;2023-03-04T07:03:01;99430.97;;;7.69;98.09
37848;BME280;23688;33.130;-117.188;2023-03-04T07:05:27;99418.47;;;7.61;98.00
37848;BME280;23688;33.130;-117.188;2023-03-04T07:07:53;99430.06;;;7.69;98.31
37848;BME280;23688;33.130;-117.188;2023-03-04T07:10:21;99435.31;;;7.70;98.09
37848;BME280;23688;33.130;-117.188;2023-03-04T07:12:50;99442.13;;;7.68;98.51
37848;BME280;23688;33.130;-117.188;2023-03-04T07:15:16;99444.22;;;7.76;98.41
37848;BME280;23688;33.130;-117.188;2023-03-04T07:17:42;99428.63;;;7.74;98.66
37848;BME280;23688;33.130;-117.188;2023-03-04T07:20:10;99440.72;;;7.75;97.89
37848;BME280;23688;33.130;-117.188;2023-03-04T07:22:37;99421.06;;;7.61;97.76
37848;BME280;23688;33.130;-117.188;2023-03-04T07:25:04;99430.88;;;7.68;97.72
37848;BME280;23688;33.130;-117.188;2023-03-04T07:27:31;99422.81;;;7.62;97.85
37848;BME280;23688;33.130;-117.188;2023-03-04T07:30:01;99421.69;;;7.57;97.74
37848;BME280;23688;33.130;-117.188;2023-03-04T07:32:27;99417.59;;;7.44;98.33
37848;BME280;23688;33.130;-117.188;2023-03-04T07:34:53;99421.44;;;7.36;98.16
37848;BME280;23688;33.130;-117.188;2023-03-04T07:37:21;99428.47;;;7.38;98.59
37848;BME280;23688;33.130;-117.188;2023-03-04T07:39:47;99424.91;;;7.36;98.39
37848;BME280;23688;33.130;-117.188;2023-03-04T07:42:14;99419.94;;;7.39;99.17
37848;BME280;23688;33.130;-117.188;2023-03-04T07:44:40;99426.94;;;7.42;99.74
37848;BME280;23688;33.130;-117.188;2023-03-04T07:47:08;99408.78;;;7.40;99.51
37848;BME280;23688;33.130;-117.188;2023-03-04T07:49:35;99407.25;;;7.44;100.00
37848;BME280;23688;33.130;-117.188;2023-03-04T07:52:03;99412.63;;;7.48;100.00
37848;BME280;23688;33.130;-117.188;2023-03-04T07:54:30;99414.59;;;7.53;100.00
37848;BME280;23688;33.130;-117.188;2023-03-04T07:56:59;99409.16;;;7.48;100.00
37848;BME280;23688;33.130;-117.188;2023-03-04T07:59:25;99420.97;;;7.59;100.00
37848;BME280;23688;33.130;-117.188;2023-03-04T08:01:54;99420.88;;;7.58;100.00
37848;BME280;23688;33.130;-117.188;2023-03-04T08:04:22;99416.69;;;7.60;100.00
37848;BME280;23688;33.130;-117.188;2023-03-04T08:06:48;99417.31;;;7.56;100.00
37848;BME280;23688;33.130;-117.188;2023-03-04T08:09:15;99414.53;;;7.51;100.00
37848;BME280;23688;33.130;-117.188;2023-03-04T08:11:42;99403.03;;;7.46;99.76
37848;BME280;23688;33.130;-117.188;2023-03-04T08:14:11;99408.00;;;7.41;99.35
37848;BME280;23688;33.130;-117.188;2023-03-04T08:16:39;99398.28;;;7.37;99.31
37848;BME280;23688;33.130;-117.188;2023-03-04T08:19:07;99411.69;;;7.46;99.61
37848;BME280;23688;33.130;-117.188;2023-03-04T08:21:34;99410.63;;;7.43;99.20
37848;BME280;23688;33.130;-117.188;2023-03-04T08:24:01;99414.91;;;7.42;99.07
37848;BME280;23688;33.130;-117.188;2023-03-04T08:26:38;99413.38;;;7.46;99.26
37848;BME280;23688;33.130;-117.188;2023-03-04T08:29:11;99420.31;;;7.47;98.95
37848;BME280;23688;33.130;-117.188;2023-03-04T08:31:37;99433.97;;;7.44;99.11
37848;BME280;23688;33.130;-117.188;2023-03-04T08:34:04;99430.06;;;7.36;98.78
37848;BME280;23688;33.130;-117.188;2023-03-04T08:36:32;99432.97;;;7.26;98.32
37848;BME280;23688;33.130;-117.188;2023-03-04T08:39:02;99429.28;;;7.21;98.31
37848;BME280;23688;33.130;-117.188;2023-03-04T08:41:28;99429.19;;;7.19;98.61
37848;BME280;23688;33.130;-117.188;2023-03-04T08:43:57;99421.13;;;7.13;98.75
37848;BME280;23688;33.130;-117.188;2023-03-04T08:46:23;99424.44;;;7.11;98.73
37848;BME280;23688;33.130;-117.188;2023-03-04T08:48:52;99424.81;;;7.02;98.82
37848;BME280;23688;33.130;-117.188;2023-03-04T08:51:19;99421.75;;;6.93;98.90
37848;BME280;23688;33.130;-117.188;2023-03-04T08:53:45;99415.41;;;6.88;98.89
37848;BME280;23688;33.130;-117.188;2023-03-04T08:56:13;99419.28;;;6.79;99.27
37848;BME280;23688;33.130;-117.188;2023-03-04T08:58:43;99419.13;;;6.76;99.27
37848;BME280;23688;33.130;-117.188;2023-03-04T09:01:12;99419.91;;;6.75;99.35
37848;BME280;23688;33.130;-117.188;2023-03-04T09:03:39;99410.50;;;6.76;99.80
37848;BME280;23688;33.130;-117.188;2023-03-04T09:06:07;99420.25;;;6.81;100.00
37848;BME280;23688;33.130;-117.188;2023-03-04T09:08:35;99415.91;;;6.80;100.00
37848;BME280;23688;33.130;-117.188;2023-03-04T09:11:02;99417.53;;;6.78;100.00
37848;BME280;23688;33.130;-117.188;2023-03-04T09:13:30;99404.72;;;6.65;100.00
37848;BME280;23688;33.130;-117.188;2023-03-04T09:15:57;99414.44;;;6.69;100.00
37848;BME280;23688;33.130;-117.188;2023-03-04T09:18:26;99411.75;;;6.68;100.00
37848;BME280;23688;33.130;-117.188;2023-03-04T09:20:54;99404.56;;;6.62;100.00
37848;BME280;23688;33.130;-117.188;2023-03-04T09:23:20;99402.81;;;6.61;100.00
37848;BME280;23688;33.130;-117.188;2023-03-04T09:25:47;99395.53;;;6.54;100.00
37848;BME280;23688;33.130;-117.188;2023-03-04T09:28:14;99419.34;;;6.64;100.00
37848;BME280;23688;33.130;-117.188;2023-03-04T09:30:41;99416.03;;;6.67;100.00
37848;BME280;23688;33.130;-117.188;2023-03-04T09:33:09;99401.03;;;6.60;100.00
37848;BME280;23688;33.130;-117.188;2023-03-04T09:35:35;99402.47;;;6.55;100.00
37848;BME280;23688;33.130;-117.188;2023-03-04T09:38:03;99396.78;;;6.46;99.90
37848;BME280;23688;33.130;-117.188;2023-03-04T09:40:42;99386.84;;;6.37;100.00
37848;BME280;23688;33.130;-117.188;2023-03-04T09:43:27;99366.34;;;6.24;100.00
37848;BME280;23688;33.130;-117.188;2023-03-04T09:46:01;99389.97;;;6.31;100.00
37848;BME280;23688;33.130;-117.188;2023-03-04T09:48:41;99389.97;;;6.31;100.00
37848;BME280;23688;33.130;-117.188;2023-03-04T09:53:57;99387.75;;;6.37;100.00
37848;BME280;23688;33.130;-117.188;2023-03-04T09:56:25;99380.63;;;6.33;100.00
37848;BME280;23688;33.130;-117.188;2023-03-04T10:02:10;99372.88;;;6.33;100.00
37848;BME280;23688;33.130;-117.188;2023-03-04T10:04:52;99372.16;;;6.36;100.00
37848;BME280;23688;33.130;-117.188;2023-03-04T10:07:30;99370.56;;;6.38;100.00
37848;BME280;23688;33.130;-117.188;2023-03-04T10:10:32;99365.41;;;6.38;100.00
37848;BME280;23688;33.130;-117.188;2023-03-04T10:12:59;99356.63;;;6.34;100.00
37848;BME280;23688;33.130;-117.188;2023-03-04T10:21:09;99343.31;;;6.12;100.00
37848;BME280;23688;33.130;-117.188;2023-03-04T10:23:39;99352.47;;;6.21;100.00
37848;BME280;23688;33.130;-117.188;2023-03-04T10:26:15;99335.78;;;6.15;100.00
37848;BME280;23688;33.130;-117.188;2023-03-04T10:28:42;99347.25;;;6.20;100.00
37848;BME280;23688;33.130;-117.188;2023-03-04T10:31:17;99348.94;;;6.19;100.00
37848;BME280;23688;33.130;-117.188;2023-03-04T10:33:47;99333.81;;;6.11;100.00
37848;BME280;23688;33.130;-117.188;2023-03-04T10:36:32;99347.84;;;6.16;100.00
37848;BME280;23688;33.130;-117.188;2023-03-04T10:39:08;99338.81;;;6.08;100.00
37848;BME280;23688;33.130;-117.188;2023-03-04T10:41:36;99327.38;;;6.03;100.00
37848;BME280;23688;33.130;-117.188;2023-03-04T10:46:46;99309.56;;;5.92;100.00
37848;BME280;23688;33.130;-117.188;2023-03-04T10:49:15;99305.59;;;5.97;100.00
37848;BME280;23688;33.130;-117.188;2023-03-04T10:51:45;99311.91;;;6.03;100.00
37848;BME280;23688;33.130;-117.188;2023-03-04T10:54:40;99307.63;;;6.03;100.00
37848;BME280;23688;33.130;-117.188;2023-03-04T10:57:27;99303.03;;;5.97;100.00
37848;BME280;23688;33.130;-117.188;2023-03-04T10:59:59;99292.06;;;5.87;100.00
37848;BME280;23688;33.130;-117.188;2023-03-04T11:02:31;99294.91;;;5.91;100.00
37848;BME280;23688;33.130;-117.188;2023-03-04T11:05:05;99300.06;;;5.91;100.00
37848;BME280;23688;33.130;-117.188;2023-03-04T11:07:38;99306.38;;;5.82;100.00
37848;BME280;23688;33.130;-117.188;2023-03-04T11:10:14;99304.97;;;5.72;100.00
37848;BME280;23688;33.130;-117.188;2023-03-04T11:12:47;99305.94;;;5.74;100.00
37848;BME280;23688;33.130;-117.188;2023-03-04T11:15:22;99307.66;;;5.73;100.00
37848;BME280;23688;33.130;-117.188;2023-03-04T11:18:09;99287.66;;;5.69;100.00
37848;BME280;23688;33.130;-117.188;2023-03-04T11:20:42;99311.16;;;5.75;100.00
37848;BME280;23688;33.130;-117.188;2023-03-04T11:26:00;99314.84;;;5.64;100.00
37848;BME280;23688;33.130;-117.188;2023-03-04T11:31:26;99324.25;;;5.64;100.00
37848;BME280;23688;33.130;-117.188;2023-03-04T11:34:02;99318.28;;;5.65;100.00
37848;BME280;23688;33.130;-117.188;2023-03-04T11:36:59;99318.13;;;5.62;100.00
37848;BME280;23688;33.130;-117.188;2023-03-04T11:39:35;99314.03;;;5.50;100.00
37848;BME280;23688;33.130;-117.188;2023-03-04T11:44:54;99315.28;;;5.42;100.00
37848;BME280;23688;33.130;-117.188;2023-03-04T11:53:05;99333.56;;;5.47;100.00
37848;BME280;23688;33.130;-117.188;2023-03-04T11:55:46;99341.75;;;5.54;100.00
37848;BME280;23688;33.130;-117.188;2023-03-04T11:58:34;99334.88;;;5.40;100.00
37848;BME280;23688;33.130;-117.188;2023-03-04T12:01:18;99348.31;;;5.49;100.00
37848;BME280;23688;33.130;-117.188;2023-03-04T12:03:56;99357.91;;;5.52;100.00
37848;BME280;23688;33.130;-117.188;2023-03-04T12:09:24;99337.91;;;5.33;100.00
37848;BME280;23688;33.130;-117.188;2023-03-04T12:12:00;99345.78;;;5.36;100.00
37848;BME280;23688;33.130;-117.188;2023-03-04T12:14:42;99329.91;;;5.28;100.00
37848;BME280;23688;33.130;-117.188;2023-03-04T12:21:21;99345.16;;;5.25;100.00
37848;BME280;23688;33.130;-117.188;2023-03-04T12:26:44;99356.78;;;5.19;100.00
37848;BME280;23688;33.130;-117.188;2023-03-04T12:29:00;99347.28;;;5.18;100.00
37848;BME280;23688;33.130;-117.188;2023-03-04T12:31:38;99328.31;;;5.02;100.00
37848;BME280;23688;33.130;-117.188;2023-03-04T12:37:10;99337.84;;;5.03;100.00
37848;BME280;23688;33.130;-117.188;2023-03-04T12:47:53;99350.03;;;5.21;100.00
37848;BME280;23688;33.130;-117.188;2023-03-04T12:53:03;99347.31;;;5.32;100.00
37848;BME280;23688;33.130;-117.188;2023-03-04T12:55:43;99340.47;;;5.33;100.00
37848;BME280;23688;33.130;-117.188;2023-03-04T12:58:18;99324.41;;;5.22;100.00
37848;BME280;23688;33.130;-117.188;2023-03-04T13:01:10;99343.94;;;5.33;100.00
37848;BME280;23688;33.130;-117.188;2023-03-04T13:07:09;99353.34;;;5.33;100.00
37848;BME280;23688;33.130;-117.188;2023-03-04T13:09:50;99347.13;;;5.29;100.00
37848;BME280;23688;33.130;-117.188;2023-03-04T13:12:21;99367.31;;;5.36;100.00
37848;BME280;23688;33.130;-117.188;2023-03-04T13:17:37;99377.25;;;5.45;100.00
37848;BME280;23688;33.130;-117.188;2023-03-04T13:20:21;99360.25;;;5.34;100.00
37848;BME280;23688;33.130;-117.188;2023-03-04T13:25:47;99379.03;;;5.46;100.00
37848;BME280;23688;33.130;-117.188;2023-03-04T13:43:47;99354.88;;;5.44;100.00
37848;BME280;23688;33.130;-117.188;2023-03-04T13:56:26;99369.22;;;5.26;100.00
37848;BME280;23688;33.130;-117.188;2023-03-04T14:01:57;99375.94;;;5.24;100.00
37848;BME280;23688;33.130;-117.188;2023-03-04T14:06:54;99406.66;;;5.21;100.00
37848;BME280;23688;33.130;-117.188;2023-03-04T14:09:33;99363.41;;;5.00;100.00
37848;BME280;23688;33.130;-117.188;2023-03-04T14:12:10;99401.47;;;5.06;100.00
37848;BME280;23688;33.130;-117.188;2023-03-04T14:14:55;99433.03;;;5.03;100.00
37848;BME280;23688;33.130;-117.188;2023-03-04T14:17:28;99458.06;;;5.06;100.00
37848;BME280;23688;33.130;-117.188;2023-03-04T14:19:56;99473.22;;;5.14;100.00
37848;BME280;23688;33.130;-117.188;2023-03-04T14:22:32;99483.50;;;5.14;100.00
37848;BME280;23688;33.130;-117.188;2023-03-04T14:25:14;99484.97;;;5.11;100.00